sensor_id;sensor_type;location;lat;lon;timestamp;P1;durP1;ratioP1;P2;durP2;ratioP2
11197;SDS011;5655;48.744;9.162;2023-07-20T00:00:22;3.65;;;2.20;;
11197;SDS011;5655;48.744;9.162;2023-07-20T00:02:49;2.67;;;1.92;;
11197;SDS011;5655;48.744;9.162;2023-07-20T00:05:15;3.47;;;2.00;;
11197;SDS011;5655;48.744;9.162;2023-07-20T00:07:43;2.53;;;1.77;;
11197;SDS011;5655;48.744;9.162;2023-07-20T00:10:09;4.07;;;2.10;;
11197;SDS011;5655;48.744;9.162;2023-07-20T00:12:34;2.83;;;2.00;;
11197;SDS011;5655;48.744;9.162;2023-07-20T00:14:59;4.22;;;2.22;;
11197;SDS011;5655;48.744;9.162;2023-07-20T00:17:25;3.17;;;1.90;;
11197;SDS011;5655;48.744;9.162;2023-07-20T00:19:50;2.42;;;1.80;;
11197;SDS011;5655;48.744;9.162;2023-07-20T00:22:15;2.78;;;1.85;;
11197;SDS011;5655;48.744;9.162;2023-07-20T00:24:41;2.58;;;1.70;;
11197;SDS011;5655;48.744;9.162;2023-07-20T00:27:06;2.83;;;1.70;;
11197;SDS011;5655;48.744;9.162;2023-07-20T00:29:31;2.85;;;2.00;;
11197;SDS011;5655;48.744;9.162;2023-07-20T00:31:58;5.25;;;1.70;;
11197;SDS011;5655;48.744;9.162;2023-07-20T00:34:23;4.80;;;1.85;;
11197;SDS011;5655;48.744;9.162;2023-07-20T00:36:48;3.05;;;2.10;;
11197;SDS011;5655;48.744;9.162;2023-07-20T00:39:14;3.97;;;1.98;;
11197;SDS011;5655;48.744;9.162;2023-07-20T00:41:39;3.70;;;1.80;;
11197;SDS011;5655;48.744;9.162;2023-07-20T00:44:05;2.65;;;1.90;;
11197;SDS011;5655;48.744;9.162;2023-07-20T00:46:31;2.92;;;2.13;;
11197;SDS011;5655;48.744;9.162;2023-07-20T00:48:57;3.05;;;2.05;;
11197;SDS011;5655;48.744;9.162;2023-07-20T00:51:23;5.25;;;1.70;;
11197;SDS011;5655;48.744;9.162;2023-07-20T00:53:51;2.92;;;1.88;;
11197;SDS011;5655;48.744;9.162;2023-07-20T00:56:17;2.50;;;1.85;;
11197;SDS011;5655;48.744;9.162;2023-07-20T00:58:42;2.88;;;1.98;;
11197;SDS011;5655;48.744;9.162;2023-07-20T01:01:08;4.78;;;1.83;;
11197;SDS011;5655;48.744;9.162;2023-07-20T01:03:33;2.88;;;1.80;;
11197;SDS011;5655;48.744;9.162;2023-07-20T01:08:37;4.85;;;2.30;;
11197;SDS011;5655;48.744;9.162;2023-07-20T01:11:21;5.15;;;2.05;;
11197;SDS011;5655;48.744;9.162;2023-07-20T01:13:53;4.90;;;2.03;;
11197;SDS011;5655;48.744;9.162;2023-07-20T01:16:18;3.00;;;1.85;;
11197;SDS011;5655;48.744;9.162;2023-07-20T01:18:44;5.35;;;2.10;;
11197;SDS011;5655;48.744;9.162;2023-07-20T01:21:09;5.15;;;2.22;;
11197;SDS011;5655;48.744;9.162;2023-07-20T01:26:27;4.43;;;2.03;;
11197;SDS011;5655;48.744;9.162;2023-07-20T01:29:17;2.55;;;1.90;;
11197;SDS011;5655;48.744;9.162;2023-07-20T01:31:54;3.60;;;1.98;;
11197;SDS011;5655;48.744;9.162;2023-07-20T01:34:22;8.13;;;2.20;;
11197;SDS011;5655;48.744;9.162;2023-07-20T01:36:49;5.47;;;2.13;;
11197;SDS011;5655;48.744;9.162;2023-07-20T01:39:17;4.45;;;2.08;;
11197;SDS011;5655;48.744;9.162;2023-07-20T01:41:44;4.95;;;1.70;;
11197;SDS011;5655;48.744;9.162;2023-07-20T01:44:10;2.88;;;1.60;;
11197;SDS011;5655;48.744;9.162;2023-07-20T01:46:37;3.40;;;2.10;;
11197;SDS011;5655;48.744;9.162;2023-07-20T01:49:02;4.22;;;2.17;;
11197;SDS011;5655;48.744;9.162;2023-07-20T01:51:28;3.08;;;1.70;;
11197;SDS011;5655;48.744;9.162;2023-07-20T01:53:53;2.40;;;1.75;;
11197;SDS011;5655;48.744;9.162;2023-07-20T01:56:18;2.92;;;2.00;;
11197;SDS011;5655;48.744;9.162;2023-07-20T01:58:44;4.15;;;1.92;;
11197;SDS011;5655;48.744;9.162;2023-07-20T02:01:09;2.97;;;1.80;;
11197;SDS011;5655;48.744;9.162;2023-07-20T02:03:34;4.15;;;2.00;;
11197;SDS011;5655;48.744;9.162;2023-07-20T02:06:00;4.32;;;2.15;;
11197;SDS011;5655;48.744;9.162;2023-07-20T02:08:25;2.88;;;1.80;;
11197;SDS011;5655;48.744;9.162;2023-07-20T02:10:51;3.10;;;2.55;;
11197;SDS011;5655;48.744;9.162;2023-07-20T02:13:17;2.97;;;2.10;;
11197;SDS011;5655;48.744;9.162;2023-07-20T02:15:42;2.28;;;2.05;;
11197;SDS011;5655;48.744;9.162;2023-07-20T02:18:08;4.18;;;1.95;;
11197;SDS011;5655;48.744;9.162;2023-07-20T02:20:33;4.70;;;2.00;;
11197;SDS011;5655;48.744;9.162;2023-07-20T02:22:59;3.20;;;2.20;;
11197;SDS011;5655;48.744;9.162;2023-07-20T02:25:25;3.72;;;2.03;;
11197;SDS011;5655;48.744;9.162;2023-07-20T02:27:50;3.20;;;1.83;;
11197;SDS011;5655;48.744;9.162;2023-07-20T02:30:15;4.95;;;1.92;;
11197;SDS011;5655;48.744;9.162;2023-07-20T02:32:41;4.05;;;2.13;;
11197;SDS011;5655;48.744;9.162;2023-07-20T02:35:10;3.83;;;2.30;;
11197;SDS011;5655;48.744;9.162;2023-07-20T02:37:36;4.32;;;1.92;;
11197;SDS011;5655;48.744;9.162;2023-07-20T02:40:01;4.93;;;2.33;;
11197;SDS011;5655;48.744;9.162;2023-07-20T02:42:29;2.45;;;2.00;;
11197;SDS011;5655;48.744;9.162;2023-07-20T02:44:54;6.20;;;2.00;;
11197;SDS011;5655;48.744;9.162;2023-07-20T02:47:19;5.05;;;2.47;;
11197;SDS011;5655;48.744;9.162;2023-07-20T02:49:45;9.80;;;2.20;;
11197;SDS011;5655;48.744;9.162;2023-07-20T02:52:10;3.17;;;2.20;;
11197;SDS011;5655;48.744;9.162;2023-07-20T02:54:35;3.08;;;1.80;;
11197;SDS011;5655;48.744;9.162;2023-07-20T02:57:01;2.88;;;2.05;;
11197;SDS011;5655;48.744;9.162;2023-07-20T02:59:26;3.38;;;1.70;;
11197;SDS011;5655;48.744;9.162;2023-07-20T03:01:52;2.80;;;1.95;;
11197;SDS011;5655;48.744;9.162;2023-07-20T03:04:17;4.47;;;1.95;;
11197;SDS011;5655;48.744;9.162;2023-07-20T03:06:43;6.72;;;2.42;;
11197;SDS011;5655;48.744;9.162;2023-07-20T03:09:08;4.88;;;2.45;;
11197;SDS011;5655;48.744;9.162;2023-07-20T03:11:34;4.25;;;2.20;;
11197;SDS011;5655;48.744;9.162;2023-07-20T03:13:59;5.47;;;2.25;;
11197;SDS011;5655;48.744;9.162;2023-07-20T03:16:25;3.13;;;2.10;;
11197;SDS011;5655;48.744;9.162;2023-07-20T03:18:51;4.30;;;2.40;;
11197;SDS011;5655;48.744;9.162;2023-07-20T03:21:16;3.88;;;1.80;;
11197;SDS011;5655;48.744;9.162;2023-07-20T03:23:42;5.80;;;2.70;;
11197;SDS011;5655;48.744;9.162;2023-07-20T03:26:08;3.83;;;1.70;;
11197;SDS011;5655;48.744;9.162;2023-07-20T03:28:34;4.90;;;2.00;;
11197;SDS011;5655;48.744;9.162;2023-07-20T03:31:04;3.72;;;1.83;;
11197;SDS011;5655;48.744;9.162;2023-07-20T03:33:29;3.22;;;2.13;;
11197;SDS011;5655;48.744;9.162;2023-07-20T03:35:55;4.07;;;2.13;;
11197;SDS011;5655;48.744;9.162;2023-07-20T03:38:21;2.60;;;2.08;;
11197;SDS011;5655;48.744;9.162;2023-07-20T03:40:51;4.18;;;2.00;;
11197;SDS011;5655;48.744;9.162;2023-07-20T03:43:17;4.32;;;1.90;;
11197;SDS011;5655;48.744;9.162;2023-07-20T03:45:43;2.95;;;2.10;;
11197;SDS011;5655;48.744;9.162;2023-07-20T03:48:10;2.95;;;2.10;;
11197;SDS011;5655;48.744;9.162;2023-07-20T03:50:36;3.58;;;2.13;;
11197;SDS011;5655;48.744;9.162;2023-07-20T03:53:01;4.20;;;2.03;;
11197;SDS011;5655;48.744;9.162;2023-07-20T03:55:26;3.83;;;2.03;;
11197;SDS011;5655;48.744;9.162;2023-07-20T03:57:51;2.95;;;2.00;;
11197;SDS011;5655;48.744;9.162;2023-07-20T04:00:17;4.70;;;1.92;;
11197;SDS011;5655;48.744;9.162;2023-07-20T04:02:43;3.08;;;2.10;;
11197;SDS011;5655;48.744;9.162;2023-07-20T04:05:08;3.05;;;2.00;;
11197;SDS011;5655;48.744;9.162;2023-07-20T04:07:34;6.60;;;1.98;;
11197;SDS011;5655;48.744;9.162;2023-07-20T04:09:59;4.15;;;2.13;;
11197;SDS011;5655;48.744;9.162;2023-07-20T04:12:24;3.67;;;1.73;;
11197;SDS011;5655;48.744;9.162;2023-07-20T04:14:50;5.38;;;2.00;;
11197;SDS011;5655;48.744;9.162;2023-07-20T04:17:15;6.28;;;2.28;;
11197;SDS011;5655;48.744;9.162;2023-07-20T04:19:40;4.35;;;2.20;;
11197;SDS011;5655;48.744;9.162;2023-07-20T04:22:05;4.28;;;2.22;;
11197;SDS011;5655;48.744;9.162;2023-07-20T04:24:31;3.55;;;2.15;;
11197;SDS011;5655;48.744;9.162;2023-07-20T04:26:56;3.63;;;1.90;;
11197;SDS011;5655;48.744;9.162;2023-07-20T04:29:21;4.18;;;1.80;;
11197;SDS011;5655;48.744;9.162;2023-07-20T04:31:47;6.20;;;2.00;;
11197;SDS011;5655;48.744;9.162;2023-07-20T04:34:12;2.17;;;1.88;;
11197;SDS011;5655;48.744;9.162;2023-07-20T04:36:37;6.90;;;2.40;;
11197;SDS011;5655;48.744;9.162;2023-07-20T04:39:03;4.22;;;1.92;;
11197;SDS011;5655;48.744;9.162;2023-07-20T04:41:29;3.45;;;1.90;;
11197;SDS011;5655;48.744;9.162;2023-07-20T04:43:55;3.50;;;2.30;;
11197;SDS011;5655;48.744;9.162;2023-07-20T04:46:20;6.70;;;2.25;;
11197;SDS011;5655;48.744;9.162;2023-07-20T04:48:46;3.47;;;2.15;;
11197;SDS011;5655;48.744;9.162;2023-07-20T04:51:12;6.63;;;2.20;;
11197;SDS011;5655;48.744;9.162;2023-07-20T04:53:38;4.40;;;2.20;;
11197;SDS011;5655;48.744;9.162;2023-07-20T04:56:03;3.10;;;1.90;;
11197;SDS011;5655;48.744;9.162;2023-07-20T04:58:29;5.28;;;2.50;;
11197;SDS011;5655;48.744;9.162;2023-07-20T05:00:54;2.00;;;1.80;;
11197;SDS011;5655;48.744;9.162;2023-07-20T05:03:20;3.72;;;2.08;;
11197;SDS011;5655;48.744;9.162;2023-07-20T05:05:46;4.75;;;2.25;;
11197;SDS011;5655;48.744;9.162;2023-07-20T05:08:13;3.15;;;2.20;;
11197;SDS011;5655;48.744;9.162;2023-07-20T05:10:38;2.97;;;2.10;;
11197;SDS011;5655;48.744;9.162;2023-07-20T05:13:03;5.50;;;2.10;;
11197;SDS011;5655;48.744;9.162;2023-07-20T05:15:28;5.65;;;2.05;;
11197;SDS011;5655;48.744;9.162;2023-07-20T05:17:54;2.70;;;1.98;;
11197;SDS011;5655;48.744;9.162;2023-07-20T05:20:19;3.33;;;2.20;;
11197;SDS011;5655;48.744;9.162;2023-07-20T05:22:45;5.28;;;2.63;;
11197;SDS011;5655;48.744;9.162;2023-07-20T05:25:10;5.53;;;2.13;;
11197;SDS011;5655;48.744;9.162;2023-07-20T05:27:37;3.70;;;2.08;;
11197;SDS011;5655;48.744;9.162;2023-07-20T05:30:03;9.77;;;2.35;;
11197;SDS011;5655;48.744;9.162;2023-07-20T05:32:30;2.83;;;2.10;;
11197;SDS011;5655;48.744;9.162;2023-07-20T05:34:55;4.32;;;2.00;;
11197;SDS011;5655;48.744;9.162;2023-07-20T05:37:21;4.25;;;2.20;;
11197;SDS011;5655;48.744;9.162;2023-07-20T05:39:46;2.95;;;1.88;;
11197;SDS011;5655;48.744;9.162;2023-07-20T05:42:11;5.40;;;1.85;;
11197;SDS011;5655;48.744;9.162;2023-07-20T05:44:37;3.50;;;2.03;;
11197;SDS011;5655;48.744;9.162;2023-07-20T05:47:02;2.85;;;1.77;;
11197;SDS011;5655;48.744;9.162;2023-07-20T05:49:28;4.35;;;2.65;;
11197;SDS011;5655;48.744;9.162;2023-07-20T05:51:54;2.97;;;1.83;;
11197;SDS011;5655;48.744;9.162;2023-07-20T05:54:20;3.40;;;1.98;;
11197;SDS011;5655;48.744;9.162;2023-07-20T05:56:46;2.40;;;1.98;;
11197;SDS011;5655;48.744;9.162;2023-07-20T05:59:12;2.70;;;1.92;;
11197;SDS011;5655;48.744;9.162;2023-07-20T06:01:37;3.83;;;1.90;;
11197;SDS011;5655;48.744;9.162;2023-07-20T06:04:02;8.93;;;2.08;;
11197;SDS011;5655;48.744;9.162;2023-07-20T06:06:28;2.67;;;1.85;;
11197;SDS011;5655;48.744;9.162;2023-07-20T06:08:54;4.68;;;1.88;;
11197;SDS011;5655;48.744;9.162;2023-07-20T06:11:19;4.07;;;2.10;;
11197;SDS011;5655;48.744;9.162;2023-07-20T06:13:45;2.83;;;1.95;;
11197;SDS011;5655;48.744;9.162;2023-07-20T06:16:10;5.28;;;2.08;;
11197;SDS011;5655;48.744;9.162;2023-07-20T06:18:35;4.00;;;1.70;;
11197;SDS011;5655;48.744;9.162;2023-07-20T06:21:01;2.75;;;2.40;;
11197;SDS011;5655;48.744;9.162;2023-07-20T06:23:27;4.00;;;2.10;;
11197;SDS011;5655;48.744;9.162;2023-07-20T06:25:53;2.78;;;1.95;;
11197;SDS011;5655;48.744;9.162;2023-07-20T06:28:18;2.42;;;2.20;;
11197;SDS011;5655;48.744;9.162;2023-07-20T06:30:43;2.28;;;1.67;;
11197;SDS011;5655;48.744;9.162;2023-07-20T06:33:09;3.65;;;2.17;;
11197;SDS011;5655;48.744;9.162;2023-07-20T06:35:34;4.07;;;1.95;;
11197;SDS011;5655;48.744;9.162;2023-07-20T06:38:02;5.00;;;2.05;;
11197;SDS011;5655;48.744;9.162;2023-07-20T06:40:28;3.20;;;1.90;;
11197;SDS011;5655;48.744;9.162;2023-07-20T06:42:54;5.43;;;2.08;;
11197;SDS011;5655;48.744;9.162;2023-07-20T06:45:20;3.65;;;1.80;;
11197;SDS011;5655;48.744;9.162;2023-07-20T06:47:45;3.20;;;1.77;;
11197;SDS011;5655;48.744;9.162;2023-07-20T06:50:11;2.08;;;1.70;;
11197;SDS011;5655;48.744;9.162;2023-07-20T06:52:36;4.53;;;2.10;;
11197;SDS011;5655;48.744;9.162;2023-07-20T06:55:02;2.90;;;1.77;;
11197;SDS011;5655;48.744;9.162;2023-07-20T06:57:27;5.45;;;2.10;;
11197;SDS011;5655;48.744;9.162;2023-07-20T06:59:53;5.30;;;2.03;;
11197;SDS011;5655;48.744;9.162;2023-07-20T07:02:18;4.43;;;2.20;;
11197;SDS011;5655;48.744;9.162;2023-07-20T07:04:44;2.58;;;1.98;;
11197;SDS011;5655;48.744;9.162;2023-07-20T07:07:10;3.95;;;2.15;;
11197;SDS011;5655;48.744;9.162;2023-07-20T07:09:35;5.95;;;2.00;;
11197;SDS011;5655;48.744;9.162;2023-07-20T07:12:01;5.13;;;1.98;;
11197;SDS011;5655;48.744;9.162;2023-07-20T07:14:26;3.05;;;1.67;;
11197;SDS011;5655;48.744;9.162;2023-07-20T07:16:51;2.42;;;1.38;;
11197;SDS011;5655;48.744;9.162;2023-07-20T07:19:17;8.18;;;2.08;;
11197;SDS011;5655;48.744;9.162;2023-07-20T07:21:42;4.63;;;2.45;;
11197;SDS011;5655;48.744;9.162;2023-07-20T07:24:07;2.95;;;1.92;;
11197;SDS011;5655;48.744;9.162;2023-07-20T07:26:34;7.50;;;2.22;;
11197;SDS011;5655;48.744;9.162;2023-07-20T07:29:00;5.50;;;2.08;;
11197;SDS011;5655;48.744;9.162;2023-07-20T07:31:26;12.73;;;2.00;;
11197;SDS011;5655;48.744;9.162;2023-07-20T07:33:51;3.42;;;2.05;;
11197;SDS011;5655;48.744;9.162;2023-07-20T07:36:17;3.88;;;2.10;;
11197;SDS011;5655;48.744;9.162;2023-07-20T07:38:42;2.42;;;1.95;;
11197;SDS011;5655;48.744;9.162;2023-07-20T07:41:08;2.13;;;1.85;;
11197;SDS011;5655;48.744;9.162;2023-07-20T07:43:33;8.20;;;2.35;;
11197;SDS011;5655;48.744;9.162;2023-07-20T07:46:00;4.95;;;2.83;;
11197;SDS011;5655;48.744;9.162;2023-07-20T07:48:25;4.88;;;2.10;;
11197;SDS011;5655;48.744;9.162;2023-07-20T07:50:50;5.03;;;2.38;;
11197;SDS011;5655;48.744;9.162;2023-07-20T07:53:16;4.72;;;2.58;;
11197;SDS011;5655;48.744;9.162;2023-07-20T07:55:41;8.38;;;4.05;;
11197;SDS011;5655;48.744;9.162;2023-07-20T07:58:07;7.72;;;2.13;;
11197;SDS011;5655;48.744;9.162;2023-07-20T08:00:32;4.07;;;2.63;;
11197;SDS011;5655;48.744;9.162;2023-07-20T08:02:57;3.55;;;2.13;;
11197;SDS011;5655;48.744;9.162;2023-07-20T08:05:23;4.55;;;1.98;;
11197;SDS011;5655;48.744;9.162;2023-07-20T08:07:49;4.27;;;2.20;;
11197;SDS011;5655;48.744;9.162;2023-07-20T08:10:14;3.20;;;1.98;;
11197;SDS011;5655;48.744;9.162;2023-07-20T08:12:39;3.50;;;2.33;;
11197;SDS011;5655;48.744;9.162;2023-07-20T08:15:05;7.65;;;2.47;;
11197;SDS011;5655;48.744;9.162;2023-07-20T08:17:30;5.05;;;2.00;;
11197;SDS011;5655;48.744;9.162;2023-07-20T08:19:56;4.00;;;2.30;;
11197;SDS011;5655;48.744;9.162;2023-07-20T08:22:21;2.97;;;2.20;;
11197;SDS011;5655;48.744;9.162;2023-07-20T08:24:46;4.95;;;2.53;;
11197;SDS011;5655;48.744;9.162;2023-07-20T08:27:12;3.38;;;2.63;;
11197;SDS011;5655;48.744;9.162;2023-07-20T08:29:37;5.10;;;2.47;;
11197;SDS011;5655;48.744;9.162;2023-07-20T08:32:03;3.13;;;2.05;;
11197;SDS011;5655;48.744;9.162;2023-07-20T08:34:30;7.45;;;2.10;;
11197;SDS011;5655;48.744;9.162;2023-07-20T08:36:56;2.83;;;2.10;;
11197;SDS011;5655;48.744;9.162;2023-07-20T08:39:22;4.80;;;2.08;;
11197;SDS011;5655;48.744;9.162;2023-07-20T08:41:48;1.77;;;1.60;;
11197;SDS011;5655;48.744;9.162;2023-07-20T08:44:14;2.00;;;1.55;;
11197;SDS011;5655;48.744;9.162;2023-07-20T08:46:40;3.75;;;1.85;;
11197;SDS011;5655;48.744;9.162;2023-07-20T08:49:06;2.40;;;1.73;;
11197;SDS011;5655;48.744;9.162;2023-07-20T08:51:31;3.40;;;1.83;;
11197;SDS011;5655;48.744;9.162;2023-07-20T08:53:58;4.30;;;2.30;;
11197;SDS011;5655;48.744;9.162;2023-07-20T08:56:25;3.53;;;2.00;;
11197;SDS011;5655;48.744;9.162;2023-07-20T08:58:51;4.97;;;2.03;;
11197;SDS011;5655;48.744;9.162;2023-07-20T09:01:18;6.28;;;2.10;;
11197;SDS011;5655;48.744;9.162;2023-07-20T09:03:44;2.67;;;1.90;;
11197;SDS011;5655;48.744;9.162;2023-07-20T09:06:10;4.55;;;1.90;;
11197;SDS011;5655;48.744;9.162;2023-07-20T09:08:39;3.70;;;1.98;;
11197;SDS011;5655;48.744;9.162;2023-07-20T09:11:05;2.15;;;1.52;;
11197;SDS011;5655;48.744;9.162;2023-07-20T09:13:32;3.20;;;1.83;;
11197;SDS011;5655;48.744;9.162;2023-07-20T09:16:00;3.15;;;1.70;;
11197;SDS011;5655;48.744;9.162;2023-07-20T09:18:26;4.05;;;1.77;;
11197;SDS011;5655;48.744;9.162;2023-07-20T09:20:53;2.47;;;1.80;;
11197;SDS011;5655;48.744;9.162;2023-07-20T09:23:29;2.65;;;1.73;;
11197;SDS011;5655;48.744;9.162;2023-07-20T09:26:03;4.05;;;2.10;;
11197;SDS011;5655;48.744;9.162;2023-07-20T09:29:09;3.33;;;1.70;;
11197;SDS011;5655;48.744;9.162;2023-07-20T09:31:32;2.00;;;1.70;;
11197;SDS011;5655;48.744;9.162;2023-07-20T09:33:57;1.58;;;1.48;;
11197;SDS011;5655;48.744;9.162;2023-07-20T09:36:23;1.88;;;1.63;;
11197;SDS011;5655;48.744;9.162;2023-07-20T09:38:48;6.03;;;1.70;;
11197;SDS011;5655;48.744;9.162;2023-07-20T09:41:14;2.42;;;1.80;;
11197;SDS011;5655;48.744;9.162;2023-07-20T09:43:43;3.28;;;1.70;;
11197;SDS011;5655;48.744;9.162;2023-07-20T09:46:10;2.58;;;1.70;;
11197;SDS011;5655;48.744;9.162;2023-07-20T09:48:36;4.32;;;1.98;;
11197;SDS011;5655;48.744;9.162;2023-07-20T09:51:02;3.88;;;2.00;;
11197;SDS011;5655;48.744;9.162;2023-07-20T09:53:30;2.95;;;1.67;;
11197;SDS011;5655;48.744;9.162;2023-07-20T09:55:57;4.22;;;1.58;;
11197;SDS011;5655;48.744;9.162;2023-07-20T09:58:23;2.50;;;1.70;;
11197;SDS011;5655;48.744;9.162;2023-07-20T10:00:51;1.75;;;1.50;;
11197;SDS011;5655;48.744;9.162;2023-07-20T10:03:25;2.95;;;1.73;;
11197;SDS011;5655;48.744;9.162;2023-07-20T10:05:57;1.92;;;1.52;;
11197;SDS011;5655;48.744;9.162;2023-07-20T10:08:28;2.50;;;1.70;;
11197;SDS011;5655;48.744;9.162;2023-07-20T10:10:55;1.75;;;1.65;;
11197;SDS011;5655;48.744;9.162;2023-07-20T10:13:26;2.42;;;1.55;;
11197;SDS011;5655;48.744;9.162;2023-07-20T10:16:02;4.55;;;1.60;;
11197;SDS011;5655;48.744;9.162;2023-07-20T10:18:44;2.25;;;1.80;;
11197;SDS011;5655;48.744;9.162;2023-07-20T10:21:14;3.67;;;1.30;;
11197;SDS011;5655;48.744;9.162;2023-07-20T10:23:42;2.38;;;1.60;;
11197;SDS011;5655;48.744;9.162;2023-07-20T10:26:07;2.72;;;1.55;;
11197;SDS011;5655;48.744;9.162;2023-07-20T10:28:35;2.30;;;1.52;;
11197;SDS011;5655;48.744;9.162;2023-07-20T10:31:01;1.58;;;1.30;;
11197;SDS011;5655;48.744;9.162;2023-07-20T10:33:27;3.95;;;1.60;;
11197;SDS011;5655;48.744;9.162;2023-07-20T10:35:56;1.45;;;1.13;;
11197;SDS011;5655;48.744;9.162;2023-07-20T10:38:41;1.88;;;1.38;;
11197;SDS011;5655;48.744;9.162;2023-07-20T10:41:20;5.13;;;1.50;;
11197;SDS011;5655;48.744;9.162;2023-07-20T10:43:49;3.67;;;1.30;;
11197;SDS011;5655;48.744;9.162;2023-07-20T10:46:19;4.88;;;1.63;;
11197;SDS011;5655;48.744;9.162;2023-07-20T10:49:09;2.72;;;1.45;;
11197;SDS011;5655;48.744;9.162;2023-07-20T10:52:17;1.75;;;1.40;;
11197;SDS011;5655;48.744;9.162;2023-07-20T10:56:52;1.85;;;1.20;;
11197;SDS011;5655;48.744;9.162;2023-07-20T11:01:49;3.50;;;1.30;;
11197;SDS011;5655;48.744;9.162;2023-07-20T11:04:15;2.53;;;1.33;;
11197;SDS011;5655;48.744;9.162;2023-07-20T11:06:44;3.85;;;1.40;;
11197;SDS011;5655;48.744;9.162;2023-07-20T11:09:11;1.80;;;1.23;;
11197;SDS011;5655;48.744;9.162;2023-07-20T11:11:40;1.27;;;1.08;;
11197;SDS011;5655;48.744;9.162;2023-07-20T11:14:30;1.67;;;1.20;;
11197;SDS011;5655;48.744;9.162;2023-07-20T11:16:59;1.20;;;1.10;;
11197;SDS011;5655;48.744;9.162;2023-07-20T11:19:36;1.30;;;0.93;;
11197;SDS011;5655;48.744;9.162;2023-07-20T11:22:01;1.38;;;0.90;;
11197;SDS011;5655;48.744;9.162;2023-07-20T11:24:32;1.35;;;1.20;;
11197;SDS011;5655;48.744;9.162;2023-07-20T11:26:57;1.38;;;1.10;;
11197;SDS011;5655;48.744;9.162;2023-07-20T11:29:23;1.92;;;1.20;;
11197;SDS011;5655;48.744;9.162;2023-07-20T11:31:50;1.60;;;1.30;;
11197;SDS011;5655;48.744;9.162;2023-07-20T11:34:19;1.27;;;1.05;;
11197;SDS011;5655;48.744;9.162;2023-07-20T11:36:49;2.85;;;1.60;;
11197;SDS011;5655;48.744;9.162;2023-07-20T11:39:17;1.92;;;1.00;;
11197;SDS011;5655;48.744;9.162;2023-07-20T11:41:50;1.50;;;1.30;;
11197;SDS011;5655;48.744;9.162;2023-07-20T11:44:17;2.28;;;0.85;;
11197;SDS011;5655;48.744;9.162;2023-07-20T11:46:43;1.90;;;1.30;;
11197;SDS011;5655;48.744;9.162;2023-07-20T11:49:12;2.45;;;1.40;;
11197;SDS011;5655;48.744;9.162;2023-07-20T11:51:38;2.17;;;0.98;;
11197;SDS011;5655;48.744;9.162;2023-07-20T11:54:05;3.97;;;1.45;;
11197;SDS011;5655;48.744;9.162;2023-07-20T11:56:32;3.03;;;1.52;;
11197;SDS011;5655;48.744;9.162;2023-07-20T11:58:57;3.75;;;1.30;;
11197;SDS011;5655;48.744;9.162;2023-07-20T12:01:28;4.88;;;1.15;;
11197;SDS011;5655;48.744;9.162;2023-07-20T12:03:56;2.08;;;1.48;;
11197;SDS011;5655;48.744;9.162;2023-07-20T12:06:23;2.25;;;1.40;;
11197;SDS011;5655;48.744;9.162;2023-07-20T12:08:50;2.05;;;0.93;;
11197;SDS011;5655;48.744;9.162;2023-07-20T12:11:30;3.17;;;1.40;;
11197;SDS011;5655;48.744;9.162;2023-07-20T12:14:02;4.78;;;1.05;;
11197;SDS011;5655;48.744;9.162;2023-07-20T12:16:29;2.15;;;1.50;;
11197;SDS011;5655;48.744;9.162;2023-07-20T12:18:59;1.98;;;1.27;;
11197;SDS011;5655;48.744;9.162;2023-07-20T12:21:28;1.73;;;1.15;;
11197;SDS011;5655;48.744;9.162;2023-07-20T12:23:55;1.38;;;1.10;;
11197;SDS011;5655;48.744;9.162;2023-07-20T12:26:22;1.90;;;0.93;;
11197;SDS011;5655;48.744;9.162;2023-07-20T12:28:49;1.30;;;1.20;;
11197;SDS011;5655;48.744;9.162;2023-07-20T12:31:14;2.50;;;1.20;;
11197;SDS011;5655;48.744;9.162;2023-07-20T12:33:40;1.30;;;1.20;;
11197;SDS011;5655;48.744;9.162;2023-07-20T12:36:06;2.35;;;1.20;;
11197;SDS011;5655;48.744;9.162;2023-07-20T12:38:32;2.45;;;1.17;;
11197;SDS011;5655;48.744;9.162;2023-07-20T12:40:58;1.45;;;1.15;;
11197;SDS011;5655;48.744;9.162;2023-07-20T12:43:25;1.33;;;1.23;;
11197;SDS011;5655;48.744;9.162;2023-07-20T12:45:50;1.92;;;1.60;;
11197;SDS011;5655;48.744;9.162;2023-07-20T12:48:16;2.00;;;1.25;;
11197;SDS011;5655;48.744;9.162;2023-07-20T12:50:41;1.83;;;1.05;;
11197;SDS011;5655;48.744;9.162;2023-07-20T12:53:07;1.63;;;1.13;;
11197;SDS011;5655;48.744;9.162;2023-07-20T12:55:33;1.30;;;1.10;;
11197;SDS011;5655;48.744;9.162;2023-07-20T12:57:58;1.60;;;1.25;;
11197;SDS011;5655;48.744;9.162;2023-07-20T13:00:23;4.65;;;1.50;;
11197;SDS011;5655;48.744;9.162;2023-07-20T13:02:49;2.10;;;1.33;;
11197;SDS011;5655;48.744;9.162;2023-07-20T13:05:15;1.75;;;1.40;;
11197;SDS011;5655;48.744;9.162;2023-07-20T13:07:40;2.17;;;1.10;;
11197;SDS011;5655;48.744;9.162;2023-07-20T13:10:06;3.65;;;1.20;;
11197;SDS011;5655;48.744;9.162;2023-07-20T13:12:33;2.97;;;1.25;;
11197;SDS011;5655;48.744;9.162;2023-07-20T13:15:04;1.50;;;1.25;;
11197;SDS011;5655;48.744;9.162;2023-07-20T13:17:34;2.47;;;1.55;;
11197;SDS011;5655;48.744;9.162;2023-07-20T13:20:00;1.45;;;1.25;;
11197;SDS011;5655;48.744;9.162;2023-07-20T13:22:26;3.60;;;1.10;;
11197;SDS011;5655;48.744;9.162;2023-07-20T13:24:52;2.38;;;1.25;;
11197;SDS011;5655;48.744;9.162;2023-07-20T13:27:18;3.63;;;1.38;;
11197;SDS011;5655;48.744;9.162;2023-07-20T13:29:44;3.25;;;1.20;;
11197;SDS011;5655;48.744;9.162;2023-07-20T13:32:10;1.52;;;1.05;;
11197;SDS011;5655;48.744;9.162;2023-07-20T13:34:38;1.98;;;1.17;;
11197;SDS011;5655;48.744;9.162;2023-07-20T13:37:03;1.33;;;1.00;;
11197;SDS011;5655;48.744;9.162;2023-07-20T13:39:28;2.33;;;1.30;;
11197;SDS011;5655;48.744;9.162;2023-07-20T13:41:54;1.52;;;1.15;;
11197;SDS011;5655;48.744;9.162;2023-07-20T13:44:20;1.55;;;1.02;;
11197;SDS011;5655;48.744;9.162;2023-07-20T13:46:46;4.30;;;1.23;;
11197;SDS011;5655;48.744;9.162;2023-07-20T13:49:12;1.95;;;1.23;;
11197;SDS011;5655;48.744;9.162;2023-07-20T13:51:37;1.27;;;1.00;;
11197;SDS011;5655;48.744;9.162;2023-07-20T13:54:03;1.85;;;1.30;;
11197;SDS011;5655;48.744;9.162;2023-07-20T13:56:28;1.67;;;1.30;;
11197;SDS011;5655;48.744;9.162;2023-07-20T13:58:54;1.23;;;1.05;;
11197;SDS011;5655;48.744;9.162;2023-07-20T14:01:19;2.20;;;1.15;;
11197;SDS011;5655;48.744;9.162;2023-07-20T14:03:44;1.48;;;1.30;;
11197;SDS011;5655;48.744;9.162;2023-07-20T14:06:10;1.92;;;1.20;;
11197;SDS011;5655;48.744;9.162;2023-07-20T14:08:38;2.50;;;1.25;;
11197;SDS011;5655;48.744;9.162;2023-07-20T14:11:03;2.17;;;1.20;;
11197;SDS011;5655;48.744;9.162;2023-07-20T14:13:28;2.10;;;1.00;;
11197;SDS011;5655;48.744;9.162;2023-07-20T14:15:54;1.65;;;1.20;;
11197;SDS011;5655;48.744;9.162;2023-07-20T14:18:19;1.48;;;1.27;;
11197;SDS011;5655;48.744;9.162;2023-07-20T14:20:44;1.42;;;1.20;;
11197;SDS011;5655;48.744;9.162;2023-07-20T14:23:10;1.40;;;1.30;;
11197;SDS011;5655;48.744;9.162;2023-07-20T14:25:35;1.75;;;1.20;;
11197;SDS011;5655;48.744;9.162;2023-07-20T14:28:01;2.88;;;1.20;;
11197;SDS011;5655;48.744;9.162;2023-07-20T14:30:26;2.08;;;1.17;;
11197;SDS011;5655;48.744;9.162;2023-07-20T14:32:51;1.20;;;0.95;;
11197;SDS011;5655;48.744;9.162;2023-07-20T14:35:17;1.30;;;1.20;;
11197;SDS011;5655;48.744;9.162;2023-07-20T14:37:42;2.73;;;1.37;;
11197;SDS011;5655;48.744;9.162;2023-07-20T14:40:08;2.22;;;1.10;;
11197;SDS011;5655;48.744;9.162;2023-07-20T14:42:33;3.03;;;1.38;;
11197;SDS011;5655;48.744;9.162;2023-07-20T14:44:59;3.67;;;1.20;;
11197;SDS011;5655;48.744;9.162;2023-07-20T14:47:24;1.63;;;1.48;;
11197;SDS011;5655;48.744;9.162;2023-07-20T14:49:49;4.00;;;1.10;;
11197;SDS011;5655;48.744;9.162;2023-07-20T14:52:15;1.42;;;1.10;;
11197;SDS011;5655;48.744;9.162;2023-07-20T14:54:40;1.88;;;1.25;;
11197;SDS011;5655;48.744;9.162;2023-07-20T14:57:05;2.03;;;1.20;;
11197;SDS011;5655;48.744;9.162;2023-07-20T14:59:38;1.92;;;1.33;;
11197;SDS011;5655;48.744;9.162;2023-07-20T15:02:04;1.92;;;1.17;;
11197;SDS011;5655;48.744;9.162;2023-07-20T15:04:29;1.17;;;0.93;;
11197;SDS011;5655;48.744;9.162;2023-07-20T15:06:54;1.70;;;1.20;;